15:17
Airports
History
Links
Donate
Help keep this website running!
PayPal
Bitcoin
This page is community maintained. The information is intended for PC simulator navigation or reference.
Always use approved charts for navigation.
SDRF
Fazenda Recanto Feliz
Fazenda Recanto Feliz (SDRF)
Rio Claro, Rio de Janeiro, Brazil (27460)
4
Lat/Lng:22° 44' 46" S / 44° 3' 3" W
-22.746111 / -44.050833
Elevation:1750'ft / 533mMSL
ID / ICAO:SDRF
Runways:1
Longest:05-23
Grass 869m / 2,851ft
Nearby Weather15:00 GMT 2018-01-16
Nearby weather at SBSC, SANTA CRUZ located 24.7 nautical miles from SDRF
Altimeter: 29.97
Visibility: 6.2 statute miles
Wind: 5 knots (from 210°)
Temp: 32°c / 90°f
Humidity: 52.3%

METAR: SBSC 161500Z 21005KT 9999 FEW030 32/21 Q1015

(Powered by phpweather)
Runway 05 / 23
Dimensions:869 x 20.1m 2851' x 66'ft
Surface:Grass
Runway 05 [A]Runway 23 [B]
Heading:026°TH 206°TH
Lat:
Lng:
22° 44' 58.62"S
44° 3' 9.77"W
22° 44' 33.38"S
44° 2' 56.23"W
User Notes and Comments
22° 44' 46" S / 44° 3' 3" W
Distance To
Airport ID:
Nearby Airports
4 Fazenda Portobello 12.7 NM
SDPA S 188°
4 Fazenda Bom Jardim 13.5 NM
SDCZ SSW 193°
(U) FAZENDA PEDRA BRANCA 18.7 NM
SDIL SW 234°
(U) Angra dos Reis 22.7 NM
SDAG SW 225°
4 Marambaia 24.7 NM
SDMR SSE 153°
(C) SANTA CRUZ 24.7 NM
SBSC ( WX ) ESE 121°
4 Ilha dos Porcos Grandes 27.4 NM
SILI SW 217°
VFR Chart
Flight Planning at SkyVector.com